This is the latest recevied weather packets stored in our database for station/object OK3MS-5. If no packets are shown the sender has not sent any weather packets the latest 1 day(s).
| Time | Temp. | Humidity | Pressure | Rain* | Wind** | Luminosity | Snow |
|---|---|---|---|---|---|---|---|
| 1778013010 | 16.11° C | 75% | 1003.1 hPa | 0 mm | 0.45 m/s, 192° | 0 W/m² | - |
| 1778012703 | 16.11° C | 73% | 1002.9 hPa | 0 mm | 0 m/s | 0 W/m² | - |
| 1778012410 | 16.11° C | 72% | 1002.7 hPa | 0 mm | 0 m/s | 0 W/m² | - |
| 1778012106 | 16.11° C | 70% | 1002.4 hPa | 0 mm | 0.45 m/s, 206° | 0 W/m² | - |
| 1778011809 | 16.11° C | 70% | 1002.6 hPa | 0 mm | 0.89 m/s, 166° | 0 W/m² | - |
| 1778011503 | 16.11° C | 67% | 1002.4 hPa | 0 mm | 0.45 m/s, 13° | 0 W/m² | - |
| 1778011209 | 16.67° C | 66% | 1002 hPa | 0 mm | 0 m/s | 0 W/m² | - |
| 1778010905 | 17.22° C | 62% | 1001.8 hPa | 0 mm | 0 m/s | 0 W/m² | - |
| 1778010609 | 17.22° C | 61% | 1001.7 hPa | 0 mm | 0 m/s | 0 W/m² | - |
| 1778010303 | 17.22° C | 63% | 1001.8 hPa | 0 mm | 0 m/s | 0 W/m² | - |
| 1778009703 | 16.67° C | 67% | 1001.8 hPa | 0 mm | 0 m/s | 0 W/m² | - |
| 1778009404 | 16.67° C | 68% | 1001.9 hPa | 0 mm | 0 m/s | 0 W/m² | - |
| 1778009102 | 16.67° C | 68% | 1001.8 hPa | 0 mm | 0 m/s | 0 W/m² | - |
| 1778008803 | 16.67° C | 67% | 1001.7 hPa | 0 mm | 0 m/s | 0 W/m² | - |
| 1778008503 | 16.67° C | 66% | 1001.7 hPa | 0 mm | 0.45 m/s, 13° | 0 W/m² | - |
| 1778008204 | 16.67° C | 66% | 1001.6 hPa | 0 mm | 0 m/s | 0 W/m² | - |
| 1778007904 | 17.22° C | 65% | 1001.6 hPa | 0 mm | 0 m/s | 0 W/m² | - |
| 1778007603 | 17.22° C | 65% | 1001.6 hPa | 0 mm | 0 m/s | 0 W/m² | - |
| 1778007303 | 17.22° C | 64% | 1001.6 hPa | 0 mm | 0 m/s | 0 W/m² | - |
| 1778007008 | 17.78° C | 63% | 1001.4 hPa | 0 mm | 0.89 m/s, 13° | 0 W/m² | - |
| 1778006702 | 18.33° C | 62% | 1001.3 hPa | 0 mm | 0.45 m/s, 14° | 0 W/m² | - |
| 1778006409 | 17.78° C | 61% | 1001.4 hPa | 0 mm | 0.89 m/s, 36° | 0 W/m² | - |
| 1778006103 | 17.78° C | 62% | 1001.4 hPa | 0 mm | 0 m/s | 1 W/m² | - |
| 1778005804 | 17.78° C | 64% | 1001.5 hPa | 0 mm | 0.45 m/s, 26° | 1 W/m² | - |
| 1778005508 | 17.78° C | 64% | 1001.5 hPa | 0 mm | 0.89 m/s, 26° | 2 W/m² | - |
* Rain latest hour (hover to see other rain measurements)
** Current wind speed in m/s (hover to see current wind gust speed)